< Typhoon 196024 1960 Season Typhoon 196026 >
Typhoon 196025 (NINA)
General InformationTrack Information on Google Maps || Disaster Info.ResourceGoogle EarthGE AnimationAtom FeedGeoJSON
Detalied Best Track (Time Zone = UTC)
Year Month Day Hour Lat. Long. Pressure (hPa) Wind (kt) Class Image Chart
1960 10 20 00 13.5 137.5 1008 0 2 -- Chart
1960 10 20 06 13.0 137.0 1004 0 2 -- Chart
1960 10 20 12 12.6 136.2 1006 0 2 -- Chart
1960 10 20 18 12.0 135.2 1004 0 2 -- Chart
1960 10 21 00 11.5 134.5 1006 0 2 -- Chart
1960 10 21 06 11.3 134.0 1004 0 2 -- Chart
1960 10 21 12 11.6 133.5 1004 0 2 -- Chart
1960 10 21 18 12.0 133.0 1004 0 2 -- Chart
1960 10 22 00 12.6 132.5 1004 0 2 -- Chart
1960 10 22 06 13.0 132.0 1006 0 2 -- Chart
1960 10 22 12 13.5 131.8 1006 0 2 -- Chart
1960 10 22 18 14.0 131.6 1004 0 2 -- Chart
1960 10 23 00 14.8 131.3 1004 0 2 -- Chart
1960 10 23 06 15.6 131.1 1002 0 2 -- Chart
1960 10 23 12 16.2 131.0 1002 0 2 -- Chart
1960 10 23 18 17.0 131.0 1000 0 2 -- Chart
1960 10 24 00 17.8 131.2 995 0 9 -- Chart
1960 10 24 06 18.7 131.9 985 0 9 -- Chart
1960 10 24 12 19.3 132.3 975 0 9 -- Chart
1960 10 24 18 19.8 132.7 975 0 9 -- Chart
1960 10 25 00 20.3 133.0 975 0 9 -- Chart
1960 10 25 06 20.8 133.4 966 0 9 -- Chart
1960 10 25 12 21.6 134.0 960 0 9 -- Chart
1960 10 25 18 22.7 134.8 960 0 9 -- Chart
1960 10 26 00 24.1 135.5 955 0 9 -- Chart
1960 10 26 06 26.0 137.0 950 0 9 -- Chart
1960 10 26 12 28.3 138.4 955 0 9 -- Chart
1960 10 26 18 31.0 140.2 950 0 9 -- Chart
1960 10 27 00 33.5 143.0 960 0 9 -- Chart
1960 10 27 06 36.8 146.1 965 0 9 -- Chart
1960 10 27 12 40.6 150.5 965 0 9 -- Chart
1960 10 27 18 45.0 156.0 970 0 9 -- Chart
1960 10 28 00 47.0 163.0 962 0 9 -- Chart
1960 10 28 06 47.5 167.0 958 0 6 -- Chart
1960 10 28 12 49.1 171.8 968 0 6 -- Chart
1960 10 28 18 51.4 172.5 965 0 6 -- Chart
1960 10 29 00 52.0 175.0 966 0 6 -- Chart
1960 10 29 06 52.8 178.0 966 0 6 -- Chart
1960 10 29 12 52.1 182.5 966 0 6 -- Chart
Japan Meteorological Agency Best Track Data | Correction Date : 1991-07-16
< Typhoon 196024 1960 Season Typhoon 196026 >

Help